This is the latest recevied weather packets stored in our database for station/object K4MZ. If no packets are shown the sender has not sent any weather packets the latest 10 day(s).
| Time | Temp. | Humidity | Pressure | Rain* | Wind** | Luminosity | Snow |
|---|---|---|---|---|---|---|---|
| 1778208345 | 8.89° C | 92% | 1012.7 hPa | 0 mm | - | 0 W/m² | - |
| 1778207766 | 8.89° C | 92% | 1012.5 hPa | 0 mm | - | 0 W/m² | - |
| 1778207126 | 9.44° C | 91% | 1012.5 hPa | 0 mm | - | 0 W/m² | - |
| 1778206526 | 9.44° C | 91% | 1012.4 hPa | 0 mm | - | 0 W/m² | - |
| 1778206007 | 9.44° C | 91% | 1012.3 hPa | 0 mm | - | 0 W/m² | - |
| 1778205346 | 10° C | 91% | 1012 hPa | 0 mm | - | 0 W/m² | - |
| 1778204758 | 10° C | 91% | 1011.8 hPa | 0 mm | - | 0 W/m² | - |
| 1778204118 | 10° C | 90% | 1011.7 hPa | 0 mm | - | 0 W/m² | - |
| 1778203518 | 10.56° C | 90% | 1011.6 hPa | 0 mm | - | 0 W/m² | - |
| 1778202918 | 10.56° C | 89% | 1011.6 hPa | 0 mm | - | 0 W/m² | - |
| 1778202338 | 11.11° C | 89% | 1011.6 hPa | 0 mm | - | 0 W/m² | - |
| 1778201719 | 11.11° C | 89% | 1011.7 hPa | 0 mm | - | 0 W/m² | - |
| 1778201119 | 11.11° C | 88% | 1011.7 hPa | 0 mm | - | 0 W/m² | - |
| 1778200539 | 11.67° C | 87% | 1011.7 hPa | 0 mm | - | 0 W/m² | - |
| 1778199919 | 12.22° C | 87% | 1011.6 hPa | 0 mm | - | 1 W/m² | - |
| 1778199319 | 12.22° C | 86% | 1011.5 hPa | 0 mm | - | 3 W/m² | - |
| 1778198717 | 12.78° C | 85% | 1011.3 hPa | 0 mm | - | 9 W/m² | - |
| 1778198160 | 13.33° C | 84% | 1011 hPa | 0 mm | - | 16 W/m² | - |
| 1778197539 | 13.89° C | 83% | 1010.9 hPa | 0 mm | - | 24 W/m² | - |
| 1778196957 | 13.89° C | 83% | 1010.8 hPa | 0 mm | - | 32 W/m² | - |
| 1778196378 | 14.44° C | 82% | 1010.7 hPa | 0 mm | - | 45 W/m² | - |
| 1778195720 | 15° C | 82% | 1010.5 hPa | 0 mm | - | 53 W/m² | - |
| 1778195158 | 15.56° C | 82% | 1010.4 hPa | 0 mm | - | 65 W/m² | - |
| 1778194518 | 15° C | 83% | 1010.2 hPa | 0 mm | - | 119 W/m² | - |
| 1778193918 | 14.44° C | 85% | 1010.3 hPa | 0 mm | - | 155 W/m² | - |
* Rain latest hour (hover to see other rain measurements)
** Current wind speed in m/s (hover to see current wind gust speed)